createdAt,value
2023-06-25T00:02:21.517Z,99827.30
2023-06-25T00:05:27.680Z,99832.54
2023-06-25T00:08:33.322Z,99821.69
2023-06-25T00:11:39.663Z,99824.95
2023-06-25T00:14:45.623Z,99821.11
2023-06-25T00:17:52.063Z,99817.39
2023-06-25T00:20:58.769Z,99799.77
2023-06-25T00:23:57.337Z,99783.83
2023-06-25T00:27:03.759Z,99762.66
2023-06-25T00:30:09.817Z,99748.70
2023-06-25T00:33:17.052Z,99730.08
2023-06-25T00:36:23.133Z,99722.71
2023-06-25T00:39:29.278Z,99710.95
2023-06-25T00:42:35.335Z,99717.66
2023-06-25T00:45:41.427Z,99708.73
2023-06-25T00:48:48.061Z,99700.04
2023-06-25T00:51:53.348Z,99700.33
2023-06-25T00:54:59.738Z,99703.22
2023-06-25T00:58:08.083Z,99705.45
2023-06-25T01:01:13.583Z,99705.39
2023-06-25T01:04:34.720Z,99718.03
2023-06-25T01:07:41.302Z,99728.74
2023-06-25T01:10:46.826Z,99719.58
2023-06-25T01:13:52.784Z,99714.20
2023-06-25T01:16:59.569Z,99703.45
2023-06-25T01:20:05.689Z,99714.91
2023-06-25T01:23:12.261Z,99729.82
2023-06-25T01:26:19.165Z,99721.02
2023-06-25T01:29:24.987Z,99689.73
2023-06-25T01:32:32.230Z,99680.94
2023-06-25T01:35:32.262Z,99714.96
2023-06-25T01:38:38.396Z,99722.99
2023-06-25T01:41:43.468Z,99733.64
2023-06-25T01:44:49.489Z,99736.89
2023-06-25T01:47:55.358Z,99725.23
2023-06-25T01:51:04.842Z,99719.13
2023-06-25T01:54:11.330Z,99715.02
2023-06-25T01:57:17.171Z,99712.63
2023-06-25T02:00:24.370Z,99700.81
2023-06-25T02:03:34.206Z,99716.75
2023-06-25T02:06:39.757Z,99725.88
2023-06-25T02:09:45.830Z,99731.55
2023-06-25T02:12:51.449Z,99740.91
2023-06-25T02:15:58.968Z,99736.52
2023-06-25T02:19:04.948Z,99748.52
2023-06-25T02:22:10.549Z,99742.55
2023-06-25T02:25:17.208Z,99733.50
2023-06-25T02:28:23.558Z,99726.60
2023-06-25T02:31:30.435Z,99726.17
2023-06-25T02:34:36.707Z,99728.17
2023-06-25T02:37:42.303Z,99718.53
2023-06-25T02:40:48.023Z,99727.34
2023-06-25T02:43:54.376Z,99736.42
2023-06-25T02:47:01.238Z,99721.91
2023-06-25T02:50:07.421Z,99724.20
2023-06-25T02:53:13.000Z,99722.37
2023-06-25T02:56:18.997Z,99725.60
2023-06-25T02:59:25.049Z,99727.53
2023-06-25T03:02:30.656Z,99720.17
2023-06-25T03:05:37.926Z,99724.05
2023-06-25T03:08:44.867Z,99718.42
2023-06-25T03:11:50.893Z,99711.16
2023-06-25T03:14:58.854Z,99713.50
2023-06-25T03:18:04.908Z,99707.69
2023-06-25T03:21:12.241Z,99708.88
2023-06-25T03:24:17.477Z,99711.11
2023-06-25T03:27:24.768Z,99713.98
2023-06-25T03:30:30.212Z,99719.91
2023-06-25T03:33:35.468Z,99714.84
2023-06-25T03:36:34.684Z,99720.45
2023-06-25T03:39:40.327Z,99714.78
2023-06-25T03:42:44.791Z,99702.88
2023-06-25T03:45:50.263Z,99705.72
2023-06-25T03:48:59.865Z,99711.66
2023-06-25T03:52:07.757Z,99710.39
2023-06-25T03:55:13.341Z,99703.30
2023-06-25T03:58:19.621Z,99702.48
2023-06-25T04:01:25.728Z,99702.66
2023-06-25T04:04:30.898Z,99695.56
2023-06-25T04:07:37.316Z,99701.41
2023-06-25T04:10:43.163Z,99706.58
2023-06-25T04:13:49.746Z,99707.72
2023-06-25T04:16:57.377Z,99711.77
2023-06-25T04:20:03.993Z,99713.66
2023-06-25T04:23:10.762Z,99712.22
2023-06-25T04:26:16.500Z,99714.70
2023-06-25T04:29:22.125Z,99712.78
2023-06-25T04:32:28.303Z,99717.77
2023-06-25T04:35:33.166Z,99711.09
2023-06-25T04:38:38.240Z,99714.81
2023-06-25T04:41:44.108Z,99713.61
2023-06-25T04:44:49.920Z,99710.56
2023-06-25T04:47:54.826Z,99714.37
2023-06-25T04:51:01.587Z,99715.30
2023-06-25T04:54:07.959Z,99711.47
2023-06-25T04:57:13.519Z,99718.73
2023-06-25T05:00:21.858Z,99704.87
2023-06-25T05:03:27.747Z,99712.48
2023-06-25T05:06:33.245Z,99715.90
2023-06-25T05:09:39.158Z,99721.48
2023-06-25T05:12:45.026Z,99710.87
2023-06-25T05:15:50.732Z,99708.56
2023-06-25T05:18:58.154Z,99711.25
2023-06-25T05:22:03.877Z,99710.54
2023-06-25T05:25:10.322Z,99702.64
2023-06-25T05:28:16.511Z,99706.56
2023-06-25T05:31:22.819Z,99697.11
2023-06-25T05:34:29.211Z,99700.18
2023-06-25T05:37:34.557Z,99697.63
2023-06-25T05:40:42.708Z,99688.64
2023-06-25T05:43:48.844Z,99690.46
2023-06-25T05:46:54.671Z,99694.52
2023-06-25T05:49:54.418Z,99686.56
2023-06-25T05:53:01.866Z,99682.73
2023-06-25T05:56:07.141Z,99686.13
2023-06-25T05:59:13.125Z,99686.13
2023-06-25T06:02:18.652Z,99682.44
2023-06-25T06:05:24.907Z,99684.61
2023-06-25T06:08:30.073Z,99691.11
2023-06-25T06:11:22.509Z,99685.31
2023-06-25T06:14:28.390Z,99684.67
2023-06-25T06:17:34.873Z,99686.14
2023-06-25T06:20:41.308Z,99691.25
2023-06-25T06:23:47.123Z,99691.25
2023-06-25T06:26:53.548Z,99690.22
2023-06-25T06:30:00.236Z,99691.31
2023-06-25T06:33:06.885Z,99669.70
2023-06-25T06:36:13.452Z,99686.31
2023-06-25T06:39:18.995Z,99683.23
2023-06-25T06:42:23.967Z,99685.75
2023-06-25T06:45:29.436Z,99692.97
2023-06-25T06:48:35.726Z,99700.28
2023-06-25T06:51:42.158Z,99694.66
2023-06-25T06:54:49.816Z,99692.15
2023-06-25T06:57:56.456Z,99689.45
2023-06-25T07:00:56.163Z,99692.04
2023-06-25T07:04:02.427Z,99699.84
2023-06-25T07:07:07.860Z,99701.96
2023-06-25T07:13:31.710Z,99692.27
2023-06-25T07:16:36.708Z,99698.91
2023-06-25T07:19:42.905Z,99700.33
2023-06-25T07:22:48.390Z,99695.25
2023-06-25T07:25:54.361Z,99701.76
2023-06-25T07:29:00.148Z,99695.55
2023-06-25T07:32:08.347Z,99696.72
2023-06-25T07:35:14.239Z,99693.41
2023-06-25T07:38:19.892Z,99700.15
2023-06-25T07:41:25.630Z,99696.05
2023-06-25T07:44:50.231Z,99698.44
2023-06-25T07:47:40.824Z,99702.13
2023-06-25T07:50:46.051Z,99699.28
2023-06-25T07:53:51.412Z,99697.98
2023-06-25T07:56:57.583Z,99693.23
2023-06-25T08:00:03.774Z,99694.07
2023-06-25T08:03:16.025Z,99699.58
2023-06-25T08:06:22.169Z,99690.47
2023-06-25T08:25:44.412Z,99686.09
2023-06-25T08:28:50.586Z,99683.33
2023-06-25T08:31:56.580Z,99684.00
2023-06-25T08:35:03.099Z,99685.28
2023-06-25T08:38:08.042Z,99685.02
2023-06-25T08:41:14.281Z,99681.45
2023-06-25T08:44:21.939Z,99681.75
2023-06-25T08:47:27.436Z,99676.32
2023-06-25T08:50:32.617Z,99677.64
2023-06-25T08:53:38.461Z,99670.83
2023-06-25T08:56:44.047Z,99668.09
2023-06-25T08:59:50.112Z,99669.70
2023-06-25T09:02:56.403Z,99669.31
2023-06-25T09:06:09.512Z,99662.28
2023-06-25T09:09:15.329Z,99667.56
2023-06-25T09:12:21.710Z,99666.20
2023-06-25T09:15:27.614Z,99664.46
2023-06-25T09:18:37.363Z,99663.01
2023-06-25T09:21:47.143Z,99657.48
2023-06-25T09:24:58.738Z,99657.67
2023-06-25T09:28:03.792Z,99649.87
2023-06-25T09:31:12.557Z,99645.97
2023-06-25T09:34:20.311Z,99650.23
2023-06-25T09:37:26.329Z,99652.03
2023-06-25T09:40:31.550Z,99646.11
2023-06-25T09:43:37.540Z,99648.92
2023-06-25T09:46:43.385Z,99643.19
2023-06-25T09:49:49.419Z,99644.06
2023-06-25T09:52:55.639Z,99646.67
2023-06-25T09:56:01.238Z,99640.73
2023-06-25T09:59:05.838Z,99635.08
2023-06-25T10:02:11.949Z,99637.50
2023-06-25T10:05:17.680Z,99633.52
2023-06-25T10:08:23.873Z,99627.59
2023-06-25T10:11:30.683Z,99630.23
2023-06-25T10:14:37.311Z,99631.61
2023-06-25T10:17:42.176Z,99627.55
2023-06-25T10:20:50.535Z,99618.95
2023-06-25T10:23:56.684Z,99614.95
2023-06-25T10:27:08.140Z,99616.27
2023-06-25T10:30:13.232Z,99612.50
2023-06-25T10:33:20.108Z,99607.86
2023-06-25T10:36:25.192Z,99608.12
2023-06-25T10:39:30.473Z,99599.39
2023-06-25T10:42:35.811Z,99597.88
2023-06-25T10:45:41.369Z,99598.47
2023-06-25T10:48:47.457Z,99587.86
2023-06-25T10:51:53.689Z,99591.16
2023-06-25T10:54:58.980Z,99580.94
2023-06-25T10:58:05.395Z,99579.48
2023-06-25T11:01:11.699Z,99573.09
2023-06-25T11:04:17.673Z,99569.00
2023-06-25T11:07:26.636Z,99562.05
2023-06-25T11:10:34.170Z,99559.70
2023-06-25T11:13:40.546Z,99564.09
2023-06-25T11:16:45.940Z,99561.78
2023-06-25T11:19:51.288Z,99572.50
2023-06-25T11:22:58.748Z,99576.02
2023-06-25T11:26:04.683Z,99576.02
2023-06-25T11:29:10.937Z,99583.15
2023-06-25T11:32:17.921Z,99583.88
2023-06-25T11:35:30.436Z,99585.22
2023-06-25T11:38:44.244Z,99592.17
2023-06-25T11:41:49.313Z,99584.70
2023-06-25T11:44:55.615Z,99579.44
2023-06-25T11:48:02.859Z,99591.75
2023-06-25T11:51:07.956Z,99568.17
2023-06-25T11:54:13.145Z,99569.41
2023-06-25T11:57:18.854Z,99552.80
2023-06-25T12:00:25.471Z,99537.35
2023-06-25T12:03:34.050Z,99550.63
2023-06-25T12:06:40.078Z,99545.39
2023-06-25T12:09:45.618Z,99542.13
2023-06-25T12:12:52.749Z,99551.73
2023-06-25T12:16:00.456Z,99545.92
2023-06-25T12:19:06.516Z,99550.94
2023-06-25T12:22:12.072Z,99554.72
2023-06-25T12:25:17.402Z,99548.91
2023-06-25T12:28:24.119Z,99549.08
2023-06-25T12:31:30.340Z,99551.86
2023-06-25T12:34:36.243Z,99558.69
2023-06-25T12:37:42.026Z,99554.70
2023-06-25T12:40:48.432Z,99560.45
2023-06-25T12:43:53.863Z,99562.07
2023-06-25T12:47:00.947Z,99567.42
2023-06-25T12:50:07.544Z,99570.36
2023-06-25T12:53:14.004Z,99569.86
2023-06-25T12:56:19.684Z,99570.73
2023-06-25T12:59:26.182Z,99567.42
2023-06-25T13:02:31.483Z,99566.59
2023-06-25T13:05:38.244Z,99567.75
2023-06-25T13:08:44.974Z,99558.52
2023-06-25T13:11:50.051Z,99554.00
2023-06-25T13:14:56.272Z,99559.00
2023-06-25T13:18:02.493Z,99548.08
2023-06-25T13:21:08.266Z,99544.48
2023-06-25T13:24:13.298Z,99544.91
2023-06-25T13:27:19.969Z,99547.31
2023-06-25T13:30:26.492Z,99552.44
2023-06-25T13:33:32.196Z,99544.34
2023-06-25T13:36:37.889Z,99544.15
2023-06-25T13:39:45.733Z,99537.83
2023-06-25T13:42:51.978Z,99540.70
2023-06-25T13:45:57.444Z,99536.38
2023-06-25T13:49:04.351Z,99531.45
2023-06-25T13:52:09.804Z,99526.23
2023-06-25T13:55:14.862Z,99524.55
2023-06-25T13:58:21.331Z,99513.56
2023-06-25T14:01:27.987Z,99509.22
2023-06-25T14:04:33.683Z,99508.30
2023-06-25T14:07:39.783Z,99508.17
2023-06-25T14:10:59.935Z,99505.09
2023-06-25T14:14:04.043Z,99502.34
2023-06-25T14:17:10.191Z,99499.80
2023-06-25T14:20:16.874Z,99499.28
2023-06-25T14:23:17.300Z,99492.91
2023-06-25T14:26:23.014Z,99501.61
2023-06-25T14:29:27.867Z,99507.16
2023-06-25T14:32:33.817Z,99509.48
2023-06-25T14:35:40.236Z,99501.92
2023-06-25T14:38:48.814Z,99498.98
2023-06-25T14:41:55.157Z,99497.69
2023-06-25T14:45:01.137Z,99495.52
2023-06-25T14:48:07.331Z,99488.48
2023-06-25T14:51:13.435Z,99491.81
2023-06-25T14:54:18.973Z,99483.02
2023-06-25T14:57:25.525Z,99479.61
2023-06-25T15:00:31.177Z,99479.42
2023-06-25T15:03:37.112Z,99477.35
2023-06-25T15:06:45.832Z,99477.30
2023-06-25T15:09:50.823Z,99479.39
2023-06-25T15:12:58.256Z,99484.94
2023-06-25T15:16:05.764Z,99478.18
2023-06-25T15:19:11.707Z,99475.63
2023-06-25T15:22:16.914Z,99483.29
2023-06-25T15:25:22.693Z,99477.30
2023-06-25T15:28:28.329Z,99483.88
2023-06-25T15:31:34.728Z,99477.55
2023-06-25T15:34:40.462Z,99478.13
2023-06-25T15:37:46.182Z,99476.78
2023-06-25T15:40:51.557Z,99478.10
2023-06-25T15:43:58.397Z,99485.89
2023-06-25T15:47:04.928Z,99487.73
2023-06-25T15:50:11.919Z,99481.91
2023-06-25T15:53:17.646Z,99484.48
2023-06-25T15:56:22.990Z,99481.93
2023-06-25T15:59:28.523Z,99479.17
2023-06-25T16:02:34.719Z,99482.89
2023-06-25T16:05:41.138Z,99488.84
2023-06-25T16:08:47.469Z,99492.13
2023-06-25T16:11:54.051Z,99488.48
2023-06-25T16:15:00.518Z,99494.52
2023-06-25T16:18:06.449Z,99487.23
2023-06-25T16:21:12.221Z,99493.02
2023-06-25T16:24:19.687Z,99495.73
2023-06-25T16:27:25.395Z,99499.63
2023-06-25T16:30:30.677Z,99498.22
2023-06-25T16:33:36.689Z,99493.80
2023-06-25T16:36:41.781Z,99487.47
2023-06-25T16:39:48.184Z,99489.98
2023-06-25T16:42:53.734Z,99485.56
2023-06-25T16:46:00.388Z,99485.03
2023-06-25T16:49:07.838Z,99485.80
2023-06-25T16:52:14.430Z,99485.30
2023-06-25T16:55:22.203Z,99484.03
2023-06-25T16:58:28.468Z,99484.15
2023-06-25T17:01:34.346Z,99491.52
2023-06-25T17:04:40.403Z,99486.20
2023-06-25T17:07:46.975Z,99488.84
2023-06-25T17:10:53.666Z,99487.38
2023-06-25T17:14:00.252Z,99475.02
2023-06-25T17:17:07.613Z,99477.47
2023-06-25T17:20:12.927Z,99479.96
2023-06-25T17:23:19.432Z,99481.16
2023-06-25T17:26:26.324Z,99478.55
2023-06-25T17:29:32.520Z,99475.52
2023-06-25T17:32:38.460Z,99487.81
2023-06-25T17:35:45.082Z,99484.02
2023-06-25T17:38:51.626Z,99484.63
2023-06-25T17:41:57.592Z,99480.37
2023-06-25T17:45:04.103Z,99481.75
2023-06-25T17:48:09.507Z,99478.22
2023-06-25T17:51:15.188Z,99475.12
2023-06-25T17:54:21.392Z,99479.94
2023-06-25T17:57:26.832Z,99471.70
2023-06-25T18:00:33.285Z,99468.69
2023-06-25T18:03:41.729Z,99469.02
2023-06-25T18:06:47.256Z,99465.88
2023-06-25T18:09:53.045Z,99453.19
2023-06-25T18:12:59.465Z,99448.80
2023-06-25T18:16:06.390Z,99452.74
2023-06-25T18:19:12.660Z,99447.57
2023-06-25T18:22:18.216Z,99446.17
2023-06-25T18:25:26.067Z,99442.09
2023-06-25T18:28:31.999Z,99443.46
2023-06-25T18:31:38.215Z,99449.45
2023-06-25T18:34:44.081Z,99442.81
2023-06-25T18:37:49.720Z,99442.31
2023-06-25T18:40:55.790Z,99439.17
2023-06-25T18:44:02.678Z,99438.31
2023-06-25T18:49:57.093Z,99438.97
2023-06-25T18:53:03.692Z,99436.11
2023-06-25T18:56:08.725Z,99438.30
2023-06-25T18:59:14.049Z,99446.47
2023-06-25T19:02:19.729Z,99440.10
2023-06-25T19:05:26.495Z,99442.20
2023-06-25T19:08:34.933Z,99445.67
2023-06-25T19:11:41.040Z,99446.52
2023-06-25T19:14:46.396Z,99450.05
2023-06-25T19:17:53.069Z,99456.44
2023-06-25T19:20:59.229Z,99449.60
2023-06-25T19:24:04.047Z,99453.07
2023-06-25T19:27:10.660Z,99451.31
2023-06-25T19:30:17.128Z,99443.06
2023-06-25T19:33:23.393Z,99438.59
2023-06-25T19:36:29.438Z,99442.65
2023-06-25T19:39:35.438Z,99439.94
2023-06-25T19:42:42.093Z,99436.70
2023-06-25T19:45:48.595Z,99435.39
2023-06-25T19:48:54.265Z,99432.02
2023-06-25T19:52:00.836Z,99431.70
2023-06-25T19:55:06.284Z,99434.28
2023-06-25T19:58:11.921Z,99428.12
2023-06-25T20:01:18.055Z,99432.33
2023-06-25T20:04:23.414Z,99433.91
2023-06-25T20:07:32.130Z,99434.42
2023-06-25T20:10:50.930Z,99436.68
2023-06-25T20:13:57.831Z,99434.47
2023-06-25T20:17:03.575Z,99431.73
2023-06-25T20:20:09.381Z,99435.47
2023-06-25T20:23:09.884Z,99435.44
2023-06-25T20:26:16.439Z,99434.12
2023-06-25T20:29:24.833Z,99425.37
2023-06-25T20:32:30.706Z,99423.55
2023-06-25T20:35:37.684Z,99425.47
2023-06-25T20:38:42.320Z,99421.27
2023-06-25T20:41:41.761Z,99426.46
2023-06-25T20:44:36.191Z,99424.05
2023-06-25T20:47:41.058Z,99420.01
2023-06-25T20:50:46.638Z,99419.03
2023-06-25T20:53:45.866Z,99424.28
2023-06-25T20:56:52.432Z,99420.86
2023-06-25T20:59:58.836Z,99418.75
2023-06-25T21:03:05.872Z,99427.16
2023-06-25T21:06:11.206Z,99429.61
2023-06-25T21:09:17.628Z,99435.72
2023-06-25T21:12:23.356Z,99437.12
2023-06-25T21:15:29.034Z,99451.54
2023-06-25T21:18:35.190Z,99448.66
2023-06-25T21:21:41.611Z,99441.37
2023-06-25T21:24:47.457Z,99426.70
2023-06-25T21:27:54.015Z,99422.83
2023-06-25T21:30:59.267Z,99432.36
2023-06-25T21:34:05.101Z,99419.67
2023-06-25T21:37:11.799Z,99411.69
2023-06-25T21:40:17.245Z,99417.62
2023-06-25T21:43:23.480Z,99412.88
2023-06-25T21:46:29.159Z,99406.98
2023-06-25T21:49:35.640Z,99408.09
2023-06-25T21:52:41.813Z,99394.76
2023-06-25T21:55:48.462Z,99393.79
2023-06-25T21:58:54.120Z,99387.22
2023-06-25T22:02:01.813Z,99386.63
2023-06-25T22:05:08.527Z,99374.39
2023-06-25T22:08:14.907Z,99372.22
2023-06-25T22:11:23.765Z,99373.20
2023-06-25T22:14:29.435Z,99367.65
2023-06-25T22:17:35.743Z,99368.17
2023-06-25T22:20:41.480Z,99366.30
2023-06-25T22:23:47.846Z,99352.05
2023-06-25T22:26:54.135Z,99350.92
2023-06-25T22:29:59.878Z,99355.59
2023-06-25T22:33:07.606Z,99352.72
2023-06-25T22:36:12.919Z,99358.50
2023-06-25T22:39:18.345Z,99356.87
2023-06-25T22:42:23.854Z,99351.82
2023-06-25T22:45:29.503Z,99359.65
2023-06-25T22:48:28.762Z,99358.83
2023-06-25T22:51:21.282Z,99361.43
2023-06-25T22:54:26.701Z,99351.61
2023-06-25T22:57:32.904Z,99349.40
2023-06-25T23:00:38.754Z,99337.63
2023-06-25T23:03:44.052Z,99329.95
2023-06-25T23:06:48.964Z,99333.52
2023-06-25T23:09:54.226Z,99332.70
2023-06-25T23:13:07.470Z,99325.88
2023-06-25T23:16:16.640Z,99323.19
2023-06-25T23:19:24.487Z,99315.87
2023-06-25T23:22:32.203Z,99324.57
2023-06-25T23:25:38.837Z,99323.44
2023-06-25T23:28:46.508Z,99326.97
2023-06-25T23:31:52.194Z,99315.52
2023-06-25T23:34:57.923Z,99311.06
2023-06-25T23:38:04.068Z,99308.97
2023-06-25T23:41:10.201Z,99307.38
2023-06-25T23:44:17.435Z,99301.84
2023-06-25T23:47:22.648Z,99316.48
2023-06-25T23:50:27.683Z,99312.97
2023-06-25T23:53:33.746Z,99309.46
2023-06-25T23:56:43.591Z,99297.55
2023-06-25T23:59:49.523Z,99298.98
